Nordlys — YJTS2 — position and weather

sailwx.info

Track history (hours):
 
Tides and Currents Weather Stations Pressure Air Temp Water Temp Dewpoint Dewpoint Depression Visibility Wind Speed Wind Dir Waves Ship Positions

Nordlys

Ship's website: http://fairtransport.eu/category/nordlys/

Last reported at 2019-Aug-22 09:30 UTC. Time now 2019-Aug-22 09:35 UTC.
Position N 55°50' E 012°45'.

Length 20 m; draft 3 m.

MMSI: 577228000.

Date/timePositionNaut miles runAvg speedWind from/ knotsBaromVisibWave heightAir tempDewpointWater temp
2019-Aug-22 09:30N 55°50' E 012°45'3 5.9
2019-Aug-22 09:00N 55°47' E 012°42'2 5.0
2019-Aug-22 08:30N 55°45' E 012°41'2 4.3
2019-Aug-22 08:00N 55°43' E 012°39'2 3.9
2019-Aug-22 07:30N 55°42' E 012°36'2 3.2
2019-Aug-22 07:00N 55°40' E 012°35'0 0.0
2019-Aug-22 06:30N 55°40' E 012°35'0 0.0
2019-Aug-22 06:00N 55°40' E 012°35'0 0.0
2019-Aug-22 05:27N 55°40' E 012°35'0 0.0
2019-Aug-21 20:47N 55°40' E 012°35'0 0.0
2019-Aug-21 11:30N 55°40' E 012°35'0 0.0
2019-Aug-21 11:00N 55°40' E 012°35'0 0.0
2019-Aug-21 10:27N 55°40' E 012°35'0 0.0
2019-Aug-21 09:57N 55°40' E 012°35'  
2019-Aug-17 16:11N 55°40' E 012°35'0 0.0
2019-Aug-17 15:59N 55°40' E 012°35'0 0.0
2019-Aug-17 15:26N 55°40' E 012°35'0 0.0
2019-Aug-17 14:56N 55°40' E 012°35'0 0.0
2019-Aug-17 14:29N 55°40' E 012°35'0 0.0
2019-Aug-17 13:56N 55°40' E 012°35'0 0.0
2019-Aug-17 13:29N 55°40' E 012°35'0 0.6
2019-Aug-17 12:52N 55°41' E 012°36'0 1.1
2019-Aug-17 12:28N 55°41' E 012°36'0 0.0
2019-Aug-17 11:52N 55°41' E 012°36'0 0.0
2019-Aug-17 11:28N 55°41' E 012°36'0 0.0
2019-Aug-17 10:58N 55°41' E 012°36'0 0.0
2019-Aug-17 10:30N 55°41' E 012°36'0 0.0
2019-Aug-17 10:00N 55°41' E 012°36'1 1.7
2019-Aug-17 09:30N 55°42' E 012°36'0 0.4
2019-Aug-17 09:00N 55°42' E 012°37'0 0.0
2019-Aug-17 08:30N 55°42' E 012°37'0 0.0
2019-Aug-17 08:00N 55°42' E 012°37'0 0.0
2019-Aug-17 07:30N 55°42' E 012°37'0 0.0
2019-Aug-17 07:00N 55°42' E 012°37'0 0.0
2019-Aug-17 06:30N 55°42' E 012°37'0 0.0
2019-Aug-17 06:00N 55°42' E 012°37'0 0.0
2019-Aug-17 05:30N 55°42' E 012°37'0 0.0
2019-Aug-17 05:00N 55°42' E 012°37'0 0.0
2019-Aug-17 04:30N 55°42' E 012°37'0 0.0
2019-Aug-17 04:00N 55°42' E 012°37'0 0.0
2019-Aug-17 03:30N 55°42' E 012°37'0 0.0
2019-Aug-17 03:00N 55°42' E 012°37'0 0.0
2019-Aug-17 02:30N 55°42' E 012°37'0 0.0
2019-Aug-17 02:00N 55°42' E 012°37'0 0.0
2019-Aug-17 01:30N 55°42' E 012°37'0 0.0
2019-Aug-17 01:00N 55°42' E 012°37'0 0.0
2019-Aug-17 00:30N 55°42' E 012°37'0 0.0
2019-Aug-17 00:00N 55°42' E 012°37'0 0.0
2019-Aug-16 23:30N 55°42' E 012°37'0 0.0
2019-Aug-16 23:00N 55°42' E 012°37'0 0.0
2019-Aug-16 22:30N 55°42' E 012°37'0 0.0
2019-Aug-16 22:00N 55°42' E 012°37'0 0.0
2019-Aug-16 21:30N 55°42' E 012°37'0 0.0
2019-Aug-16 21:00N 55°42' E 012°37'0 0.0
2019-Aug-16 20:30N 55°42' E 012°37'0 0.0
2019-Aug-16 20:00N 55°42' E 012°37'0 0.9
2019-Aug-16 19:30N 55°42' E 012°38'1 2.9
2019-Aug-16 19:00N 55°41' E 012°39'2 4.0
2019-Aug-16 18:30N 55°39' E 012°41'2 4.3
2019-Aug-16 17:59N 55°37' E 012°42'3 6.0
2019-Aug-16 17:30N 55°34' E 012°41'3 6.3
2019-Aug-16 17:00N 55°31' E 012°40'2 4.2
2019-Aug-16 16:30N 55°29' E 012°39'3 5.1
2019-Aug-16 16:00N 55°26' E 012°38'2 4.7
2019-Aug-16 15:30N 55°24' E 012°39'1 1.2
2019-Aug-16 15:00N 55°24' E 012°40'2 3.5
2019-Aug-16 14:29N 55°23' E 012°43'1 1.2
2019-Aug-16 13:54N 55°22' E 012°44'1 1.7
2019-Aug-16 13:20N 55°22' E 012°44'1 1.9
2019-Aug-16 13:00N 55°21' E 012°44'1 2.8
2019-Aug-16 12:29N 55°19' E 012°44'9 4.0
2019-Aug-16 10:23N 55°13' E 012°54'6 1.5
2019-Aug-16 06:25N 55°17' E 013°01'2 3.3
2019-Aug-16 05:55N 55°19' E 013°01'2 3.6
2019-Aug-16 05:29N 55°21' E 013°01'3 3.2
2019-Aug-16 04:40N 55°19' E 013°04'59 3.0
2019-Aug-15 08:50N 55°18' E 014°48'3 5.5
2019-Aug-15 08:17N 55°16' E 014°52'2 5.4
2019-Aug-15 07:57N 55°15' E 014°54'2 4.6
2019-Aug-15 07:30N 55°13' E 014°58'1 0.6
2019-Aug-15 06:09N 55°13' E 014°58'0 0.0
2019-Aug-15 06:00N 55°13' E 014°58'0 0.0
2019-Aug-15 05:07N 55°13' E 014°58'0 0.0
2019-Aug-13 15:44N 55°13' E 014°58'0 2.1
2019-Aug-13 15:30N 55°13' E 014°58'3 3.3
2019-Aug-13 14:32N 55°14' E 014°53'0 3.8
2019-Aug-13 14:30N 55°15' E 014°53'3 5.2
2019-Aug-13 13:56N 55°16' E 014°49'25 6.7
2019-Aug-13 10:09N 55°13' E 014°05'55 3.7
2019-Aug-12 19:14N 54°42' E 012°47'1 3.7
2019-Aug-12 18:51N 54°41' E 012°44'6 5.6
2019-Aug-12 17:44N 54°38' E 012°35'2 6.7
2019-Aug-12 17:30N 54°37' E 012°33'3 6.7
2019-Aug-12 16:59N 54°35' E 012°28'4 7.5
2019-Aug-12 16:24N 54°32' E 012°22'3 6.3
2019-Aug-12 15:57N 54°30' E 012°18'6 4.9
2019-Aug-12 14:43N 54°25' E 012°13'2 4.6
2019-Aug-12 14:23N 54°24' E 012°11'2 4.3
2019-Aug-12 13:58N 54°22' E 012°09'2 3.2
2019-Aug-12 13:30N 54°21' E 012°08'5 4.7
2019-Aug-12 12:27N 54°16' E 012°05'2 4.3
2019-Aug-12 11:59N 54°14' E 012°05'3 5.2
2019-Aug-12 11:30N 54°12' E 012°05'3 4.4
2019-Aug-12 10:55N 54°09' E 012°06'2 5.9
2019-Aug-12 10:30N 54°07' E 012°06'2 2.1
2019-Aug-12 09:47N 54°06' E 012°07'  
Track history (hours):
 
Tides and Currents Weather Stations Pressure Air Temp Water Temp Dewpoint Dewpoint Depression Visibility Wind Speed Wind Dir Waves Ship Positions

Nordlys

Ship's website: http://fairtransport.eu/category/nordlys/

Last reported at 2019-Aug-22 09:30 UTC. Time now 2019-Aug-22 09:35 UTC.
Position N 55°50' E 012°45'.

Length 20 m; draft 3 m.

MMSI: 577228000.

Date/timePositionNaut miles runAvg speedWind from/ knotsBaromVisibWave heightAir tempDewpointWater temp
2019-Aug-22 09:30N 55°50' E 012°45'3 5.9
2019-Aug-22 09:00N 55°47' E 012°42'2 5.0
2019-Aug-22 08:30N 55°45' E 012°41'2 4.3
2019-Aug-22 08:00N 55°43' E 012°39'2 3.9
2019-Aug-22 07:30N 55°42' E 012°36'2 3.2
2019-Aug-22 07:00N 55°40' E 012°35'0 0.0
2019-Aug-22 06:30N 55°40' E 012°35'0 0.0
2019-Aug-22 06:00N 55°40' E 012°35'0 0.0
2019-Aug-22 05:27N 55°40' E 012°35'0 0.0
2019-Aug-21 20:47N 55°40' E 012°35'0 0.0
2019-Aug-21 11:30N 55°40' E 012°35'0 0.0
2019-Aug-21 11:00N 55°40' E 012°35'0 0.0
2019-Aug-21 10:27N 55°40' E 012°35'0 0.0
2019-Aug-21 09:57N 55°40' E 012°35'  
2019-Aug-17 16:11N 55°40' E 012°35'0 0.0
2019-Aug-17 15:59N 55°40' E 012°35'0 0.0
2019-Aug-17 15:26N 55°40' E 012°35'0 0.0
2019-Aug-17 14:56N 55°40' E 012°35'0 0.0
2019-Aug-17 14:29N 55°40' E 012°35'0 0.0
2019-Aug-17 13:56N 55°40' E 012°35'0 0.0
2019-Aug-17 13:29N 55°40' E 012°35'0 0.6
2019-Aug-17 12:52N 55°41' E 012°36'0 1.1
2019-Aug-17 12:28N 55°41' E 012°36'0 0.0
2019-Aug-17 11:52N 55°41' E 012°36'0 0.0
2019-Aug-17 11:28N 55°41' E 012°36'0 0.0
2019-Aug-17 10:58N 55°41' E 012°36'0 0.0
2019-Aug-17 10:30N 55°41' E 012°36'0 0.0
2019-Aug-17 10:00N 55°41' E 012°36'1 1.7
2019-Aug-17 09:30N 55°42' E 012°36'0 0.4
2019-Aug-17 09:00N 55°42' E 012°37'0 0.0
2019-Aug-17 08:30N 55°42' E 012°37'0 0.0
2019-Aug-17 08:00N 55°42' E 012°37'0 0.0
2019-Aug-17 07:30N 55°42' E 012°37'0 0.0
2019-Aug-17 07:00N 55°42' E 012°37'0 0.0
2019-Aug-17 06:30N 55°42' E 012°37'0 0.0
2019-Aug-17 06:00N 55°42' E 012°37'0 0.0
2019-Aug-17 05:30N 55°42' E 012°37'0 0.0
2019-Aug-17 05:00N 55°42' E 012°37'0 0.0
2019-Aug-17 04:30N 55°42' E 012°37'0 0.0
2019-Aug-17 04:00N 55°42' E 012°37'0 0.0
2019-Aug-17 03:30N 55°42' E 012°37'0 0.0
2019-Aug-17 03:00N 55°42' E 012°37'0 0.0
2019-Aug-17 02:30N 55°42' E 012°37'0 0.0
2019-Aug-17 02:00N 55°42' E 012°37'0 0.0
2019-Aug-17 01:30N 55°42' E 012°37'0 0.0
2019-Aug-17 01:00N 55°42' E 012°37'0 0.0
2019-Aug-17 00:30N 55°42' E 012°37'0 0.0
2019-Aug-17 00:00N 55°42' E 012°37'0 0.0
2019-Aug-16 23:30N 55°42' E 012°37'0 0.0
2019-Aug-16 23:00N 55°42' E 012°37'0 0.0
2019-Aug-16 22:30N 55°42' E 012°37'0 0.0
2019-Aug-16 22:00N 55°42' E 012°37'0 0.0
2019-Aug-16 21:30N 55°42' E 012°37'0 0.0
2019-Aug-16 21:00N 55°42' E 012°37'0 0.0
2019-Aug-16 20:30N 55°42' E 012°37'0 0.0
2019-Aug-16 20:00N 55°42' E 012°37'0 0.9
2019-Aug-16 19:30N 55°42' E 012°38'1 2.9
2019-Aug-16 19:00N 55°41' E 012°39'2 4.0
2019-Aug-16 18:30N 55°39' E 012°41'2 4.3
2019-Aug-16 17:59N 55°37' E 012°42'3 6.0
2019-Aug-16 17:30N 55°34' E 012°41'3 6.3
2019-Aug-16 17:00N 55°31' E 012°40'2 4.2
2019-Aug-16 16:30N 55°29' E 012°39'3 5.1
2019-Aug-16 16:00N 55°26' E 012°38'2 4.7
2019-Aug-16 15:30N 55°24' E 012°39'1 1.2
2019-Aug-16 15:00N 55°24' E 012°40'2 3.5
2019-Aug-16 14:29N 55°23' E 012°43'1 1.2
2019-Aug-16 13:54N 55°22' E 012°44'1 1.7
2019-Aug-16 13:20N 55°22' E 012°44'1 1.9
2019-Aug-16 13:00N 55°21' E 012°44'1 2.8
2019-Aug-16 12:29N 55°19' E 012°44'9 4.0
2019-Aug-16 10:23N 55°13' E 012°54'6 1.5
2019-Aug-16 06:25N 55°17' E 013°01'2 3.3
2019-Aug-16 05:55N 55°19' E 013°01'2 3.6
2019-Aug-16 05:29N 55°21' E 013°01'3 3.2
2019-Aug-16 04:40N 55°19' E 013°04'59 3.0
2019-Aug-15 08:50N 55°18' E 014°48'3 5.5
2019-Aug-15 08:17N 55°16' E 014°52'2 5.4
2019-Aug-15 07:57N 55°15' E 014°54'2 4.6
2019-Aug-15 07:30N 55°13' E 014°58'1 0.6
2019-Aug-15 06:09N 55°13' E 014°58'0 0.0
2019-Aug-15 06:00N 55°13' E 014°58'0 0.0
2019-Aug-15 05:07N 55°13' E 014°58'0 0.0
2019-Aug-13 15:44N 55°13' E 014°58'0 2.1
2019-Aug-13 15:30N 55°13' E 014°58'3 3.3
2019-Aug-13 14:32N 55°14' E 014°53'0 3.8
2019-Aug-13 14:30N 55°15' E 014°53'3 5.2
2019-Aug-13 13:56N 55°16' E 014°49'25 6.7
2019-Aug-13 10:09N 55°13' E 014°05'55 3.7
2019-Aug-12 19:14N 54°42' E 012°47'1 3.7
2019-Aug-12 18:51N 54°41' E 012°44'6 5.6
2019-Aug-12 17:44N 54°38' E 012°35'2 6.7
2019-Aug-12 17:30N 54°37' E 012°33'3 6.7
2019-Aug-12 16:59N 54°35' E 012°28'4 7.5
2019-Aug-12 16:24N 54°32' E 012°22'3 6.3
2019-Aug-12 15:57N 54°30' E 012°18'6 4.9
2019-Aug-12 14:43N 54°25' E 012°13'2 4.6
2019-Aug-12 14:23N 54°24' E 012°11'2 4.3
2019-Aug-12 13:58N 54°22' E 012°09'2 3.2
2019-Aug-12 13:30N 54°21' E 012°08'5 4.7
2019-Aug-12 12:27N 54°16' E 012°05'2 4.3
2019-Aug-12 11:59N 54°14' E 012°05'3 5.2
2019-Aug-12 11:30N 54°12' E 012°05'3 4.4
2019-Aug-12 10:55N 54°09' E 012°06'2 5.9
2019-Aug-12 10:30N 54°07' E 012°06'2 2.1
2019-Aug-12 09:47N 54°06' E 012°07'  

Dump ship's entire track history